sensor_id;sensor_type;location;lat;lon;timestamp;temperature;humidity
58566;DHT22;47788;46.172;-1.158;2022-09-28T00:00:38;16.30;99.90
58566;DHT22;47788;46.172;-1.158;2022-09-28T00:03:07;16.30;99.90
58566;DHT22;47788;46.172;-1.158;2022-09-28T00:05:33;16.40;99.90
58566;DHT22;47788;46.172;-1.158;2022-09-28T00:07:59;16.40;99.90
58566;DHT22;47788;46.172;-1.158;2022-09-28T00:10:25;16.50;99.90
58566;DHT22;47788;46.172;-1.158;2022-09-28T00:12:52;16.50;99.90
58566;DHT22;47788;46.172;-1.158;2022-09-28T00:15:20;16.60;99.90
58566;DHT22;47788;46.172;-1.158;2022-09-28T00:17:46;16.70;99.90
58566;DHT22;47788;46.172;-1.158;2022-09-28T00:20:12;16.70;99.90
58566;DHT22;47788;46.172;-1.158;2022-09-28T00:22:38;16.70;99.90
58566;DHT22;47788;46.172;-1.158;2022-09-28T00:25:05;16.70;99.90
58566;DHT22;47788;46.172;-1.158;2022-09-28T00:27:31;16.80;99.90
58566;DHT22;47788;46.172;-1.158;2022-09-28T00:29:56;16.70;99.90
58566;DHT22;47788;46.172;-1.158;2022-09-28T00:32:22;16.60;99.90
58566;DHT22;47788;46.172;-1.158;2022-09-28T00:34:49;16.50;99.90
58566;DHT22;47788;46.172;-1.158;2022-09-28T00:37:16;16.40;99.90
58566;DHT22;47788;46.172;-1.158;2022-09-28T00:39:43;16.40;99.90
58566;DHT22;47788;46.172;-1.158;2022-09-28T00:42:24;16.40;99.90
58566;DHT22;47788;46.172;-1.158;2022-09-28T00:44:54;16.40;99.90
58566;DHT22;47788;46.172;-1.158;2022-09-28T00:47:42;16.30;99.90
58566;DHT22;47788;46.172;-1.158;2022-09-28T00:50:23;16.40;99.90
58566;DHT22;47788;46.172;-1.158;2022-09-28T00:55:37;16.50;99.90
58566;DHT22;47788;46.172;-1.158;2022-09-28T00:58:07;16.50;99.90
58566;DHT22;47788;46.172;-1.158;2022-09-28T01:00:33;16.50;99.90
58566;DHT22;47788;46.172;-1.158;2022-09-28T01:02:59;16.50;99.90
58566;DHT22;47788;46.172;-1.158;2022-09-28T01:05:26;16.60;99.90
58566;DHT22;47788;46.172;-1.158;2022-09-28T01:07:53;16.60;99.90
58566;DHT22;47788;46.172;-1.158;2022-09-28T01:10:20;16.60;99.90
58566;DHT22;47788;46.172;-1.158;2022-09-28T01:12:45;16.70;99.90
58566;DHT22;47788;46.172;-1.158;2022-09-28T01:15:12;16.70;99.90
58566;DHT22;47788;46.172;-1.158;2022-09-28T01:17:48;16.80;99.90
58566;DHT22;47788;46.172;-1.158;2022-09-28T01:25:26;16.80;99.90
58566;DHT22;47788;46.172;-1.158;2022-09-28T01:28:04;16.80;99.90
58566;DHT22;47788;46.172;-1.158;2022-09-28T01:30:41;16.80;99.90
58566;DHT22;47788;46.172;-1.158;2022-09-28T01:33:11;16.70;99.90
58566;DHT22;47788;46.172;-1.158;2022-09-28T01:35:57;16.70;99.90
58566;DHT22;47788;46.172;-1.158;2022-09-28T01:38:47;16.70;99.90
58566;DHT22;47788;46.172;-1.158;2022-09-28T01:41:15;16.70;99.90
58566;DHT22;47788;46.172;-1.158;2022-09-28T01:43:46;16.70;99.90
58566;DHT22;47788;46.172;-1.158;2022-09-28T01:46:17;16.70;99.90
58566;DHT22;47788;46.172;-1.158;2022-09-28T01:48:56;16.70;99.90
58566;DHT22;47788;46.172;-1.158;2022-09-28T01:54:27;16.70;99.90
58566;DHT22;47788;46.172;-1.158;2022-09-28T01:57:04;16.70;99.90
58566;DHT22;47788;46.172;-1.158;2022-09-28T01:59:34;16.70;99.90
58566;DHT22;47788;46.172;-1.158;2022-09-28T02:02:05;16.70;99.90
58566;DHT22;47788;46.172;-1.158;2022-09-28T02:04:38;16.70;99.90
58566;DHT22;47788;46.172;-1.158;2022-09-28T02:07:19;16.70;99.90
58566;DHT22;47788;46.172;-1.158;2022-09-28T02:09:54;16.70;99.90
58566;DHT22;47788;46.172;-1.158;2022-09-28T02:12:45;16.70;99.90
58566;DHT22;47788;46.172;-1.158;2022-09-28T02:15:21;16.70;99.90
58566;DHT22;47788;46.172;-1.158;2022-09-28T02:17:48;16.70;99.90
58566;DHT22;47788;46.172;-1.158;2022-09-28T02:20:15;16.70;99.90
58566;DHT22;47788;46.172;-1.158;2022-09-28T02:22:50;16.70;99.90
58566;DHT22;47788;46.172;-1.158;2022-09-28T02:25:38;16.60;99.90
58566;DHT22;47788;46.172;-1.158;2022-09-28T02:28:06;16.50;99.90
58566;DHT22;47788;46.172;-1.158;2022-09-28T02:30:35;16.40;99.90
58566;DHT22;47788;46.172;-1.158;2022-09-28T02:33:25;16.30;99.90
58566;DHT22;47788;46.172;-1.158;2022-09-28T02:35:53;16.40;99.90
58566;DHT22;47788;46.172;-1.158;2022-09-28T02:38:19;16.30;99.90
58566;DHT22;47788;46.172;-1.158;2022-09-28T02:43:50;16.30;99.90
58566;DHT22;47788;46.172;-1.158;2022-09-28T02:51:58;16.20;99.90
58566;DHT22;47788;46.172;-1.158;2022-09-28T03:00:00;16.10;99.90
58566;DHT22;47788;46.172;-1.158;2022-09-28T03:10:40;16.00;99.90
58566;DHT22;47788;46.172;-1.158;2022-09-28T03:13:08;16.00;99.90
58566;DHT22;47788;46.172;-1.158;2022-09-28T03:15:35;16.10;99.90
58566;DHT22;47788;46.172;-1.158;2022-09-28T03:18:01;16.10;99.90
58566;DHT22;47788;46.172;-1.158;2022-09-28T03:20:28;16.20;99.90
58566;DHT22;47788;46.172;-1.158;2022-09-28T03:22:55;16.20;99.90
58566;DHT22;47788;46.172;-1.158;2022-09-28T03:25:21;16.20;99.90
58566;DHT22;47788;46.172;-1.158;2022-09-28T03:27:46;16.30;99.90
58566;DHT22;47788;46.172;-1.158;2022-09-28T03:30:12;16.30;99.90
58566;DHT22;47788;46.172;-1.158;2022-09-28T03:32:38;16.30;99.90
58566;DHT22;47788;46.172;-1.158;2022-09-28T03:35:05;16.40;99.90
58566;DHT22;47788;46.172;-1.158;2022-09-28T03:37:32;16.40;99.90
58566;DHT22;47788;46.172;-1.158;2022-09-28T03:39:57;16.50;99.90
58566;DHT22;47788;46.172;-1.158;2022-09-28T03:42:23;16.50;99.90
58566;DHT22;47788;46.172;-1.158;2022-09-28T03:44:49;16.50;99.90
58566;DHT22;47788;46.172;-1.158;2022-09-28T03:47:15;16.60;99.90
58566;DHT22;47788;46.172;-1.158;2022-09-28T03:49:42;16.50;99.90
58566;DHT22;47788;46.172;-1.158;2022-09-28T03:52:08;16.40;99.90
58566;DHT22;47788;46.172;-1.158;2022-09-28T03:54:34;16.40;99.90
58566;DHT22;47788;46.172;-1.158;2022-09-28T03:56:59;16.30;99.90
58566;DHT22;47788;46.172;-1.158;2022-09-28T03:59:25;16.30;99.90
58566;DHT22;47788;46.172;-1.158;2022-09-28T04:01:51;16.40;99.90
58566;DHT22;47788;46.172;-1.158;2022-09-28T04:04:17;16.40;99.90
58566;DHT22;47788;46.172;-1.158;2022-09-28T04:06:43;16.50;99.90
58566;DHT22;47788;46.172;-1.158;2022-09-28T04:09:08;16.50;99.90
58566;DHT22;47788;46.172;-1.158;2022-09-28T04:11:34;16.50;99.90
58566;DHT22;47788;46.172;-1.158;2022-09-28T04:14:00;16.60;99.90
58566;DHT22;47788;46.172;-1.158;2022-09-28T04:16:26;16.60;99.90
58566;DHT22;47788;46.172;-1.158;2022-09-28T04:18:52;16.60;99.90
58566;DHT22;47788;46.172;-1.158;2022-09-28T04:21:19;16.70;99.90
58566;DHT22;47788;46.172;-1.158;2022-09-28T04:23:45;16.70;99.90
58566;DHT22;47788;46.172;-1.158;2022-09-28T04:26:37;16.70;99.90
58566;DHT22;47788;46.172;-1.158;2022-09-28T04:29:03;16.70;99.90
58566;DHT22;47788;46.172;-1.158;2022-09-28T04:31:46;16.70;99.90
58566;DHT22;47788;46.172;-1.158;2022-09-28T04:34:15;16.70;99.90
58566;DHT22;47788;46.172;-1.158;2022-09-28T04:36:42;16.70;99.90
58566;DHT22;47788;46.172;-1.158;2022-09-28T04:39:12;16.70;99.90
58566;DHT22;47788;46.172;-1.158;2022-09-28T04:41:39;16.70;99.90
58566;DHT22;47788;46.172;-1.158;2022-09-28T04:44:05;16.70;99.90
58566;DHT22;47788;46.172;-1.158;2022-09-28T04:46:30;16.70;99.90
58566;DHT22;47788;46.172;-1.158;2022-09-28T04:48:56;16.60;99.90
58566;DHT22;47788;46.172;-1.158;2022-09-28T04:51:22;16.70;99.90
58566;DHT22;47788;46.172;-1.158;2022-09-28T04:53:47;16.60;99.90
58566;DHT22;47788;46.172;-1.158;2022-09-28T04:56:14;16.70;99.90
58566;DHT22;47788;46.172;-1.158;2022-09-28T04:58:40;16.60;99.90
58566;DHT22;47788;46.172;-1.158;2022-09-28T05:01:17;16.60;99.90
58566;DHT22;47788;46.172;-1.158;2022-09-28T05:03:43;16.60;99.90
58566;DHT22;47788;46.172;-1.158;2022-09-28T05:06:12;16.60;99.90
58566;DHT22;47788;46.172;-1.158;2022-09-28T05:08:39;16.60;99.90
58566;DHT22;47788;46.172;-1.158;2022-09-28T05:11:06;16.70;99.90
58566;DHT22;47788;46.172;-1.158;2022-09-28T05:13:37;16.60;99.90
58566;DHT22;47788;46.172;-1.158;2022-09-28T05:16:06;16.60;99.90
58566;DHT22;47788;46.172;-1.158;2022-09-28T05:18:32;16.70;99.90
58566;DHT22;47788;46.172;-1.158;2022-09-28T05:20:58;16.70;99.90
58566;DHT22;47788;46.172;-1.158;2022-09-28T05:23:23;16.80;99.90
58566;DHT22;47788;46.172;-1.158;2022-09-28T05:25:49;16.80;99.90
58566;DHT22;47788;46.172;-1.158;2022-09-28T05:28:21;16.80;99.90
58566;DHT22;47788;46.172;-1.158;2022-09-28T05:30:48;16.90;99.90
58566;DHT22;47788;46.172;-1.158;2022-09-28T05:33:14;16.90;99.90
58566;DHT22;47788;46.172;-1.158;2022-09-28T05:35:39;16.80;99.90
58566;DHT22;47788;46.172;-1.158;2022-09-28T05:38:05;16.80;99.90
58566;DHT22;47788;46.172;-1.158;2022-09-28T05:40:31;16.80;99.90
58566;DHT22;47788;46.172;-1.158;2022-09-28T05:43:00;16.90;99.90
58566;DHT22;47788;46.172;-1.158;2022-09-28T05:45:27;16.90;99.90
58566;DHT22;47788;46.172;-1.158;2022-09-28T05:47:53;16.90;99.90
58566;DHT22;47788;46.172;-1.158;2022-09-28T05:50:19;16.80;99.90
58566;DHT22;47788;46.172;-1.158;2022-09-28T05:52:44;16.80;99.90
58566;DHT22;47788;46.172;-1.158;2022-09-28T05:55:11;16.80;99.90
58566;DHT22;47788;46.172;-1.158;2022-09-28T05:57:36;16.80;99.90
58566;DHT22;47788;46.172;-1.158;2022-09-28T06:00:06;16.80;99.90
58566;DHT22;47788;46.172;-1.158;2022-09-28T06:02:34;16.80;99.90
58566;DHT22;47788;46.172;-1.158;2022-09-28T06:05:00;16.70;99.90
58566;DHT22;47788;46.172;-1.158;2022-09-28T06:07:26;16.70;99.90
58566;DHT22;47788;46.172;-1.158;2022-09-28T06:09:51;16.70;99.90
58566;DHT22;47788;46.172;-1.158;2022-09-28T06:12:17;16.60;99.90
58566;DHT22;47788;46.172;-1.158;2022-09-28T06:14:44;16.60;99.90
58566;DHT22;47788;46.172;-1.158;2022-09-28T06:17:09;16.70;99.90
58566;DHT22;47788;46.172;-1.158;2022-09-28T06:19:35;16.70;99.90
58566;DHT22;47788;46.172;-1.158;2022-09-28T06:22:01;16.80;99.90
58566;DHT22;47788;46.172;-1.158;2022-09-28T06:24:26;16.80;99.90
58566;DHT22;47788;46.172;-1.158;2022-09-28T06:26:52;16.90;99.90
58566;DHT22;47788;46.172;-1.158;2022-09-28T06:29:17;16.80;99.90
58566;DHT22;47788;46.172;-1.158;2022-09-28T06:31:44;16.40;99.90
58566;DHT22;47788;46.172;-1.158;2022-09-28T06:34:10;16.10;99.90
58566;DHT22;47788;46.172;-1.158;2022-09-28T06:36:37;15.90;99.90
58566;DHT22;47788;46.172;-1.158;2022-09-28T06:39:03;15.80;99.90
58566;DHT22;47788;46.172;-1.158;2022-09-28T06:41:29;15.80;99.90
58566;DHT22;47788;46.172;-1.158;2022-09-28T06:43:54;15.80;99.90
58566;DHT22;47788;46.172;-1.158;2022-09-28T06:46:20;15.90;99.90
58566;DHT22;47788;46.172;-1.158;2022-09-28T06:48:46;16.00;99.90
58566;DHT22;47788;46.172;-1.158;2022-09-28T06:51:12;16.00;99.90
58566;DHT22;47788;46.172;-1.158;2022-09-28T06:53:38;16.00;99.90
58566;DHT22;47788;46.172;-1.158;2022-09-28T06:56:03;16.00;99.90
58566;DHT22;47788;46.172;-1.158;2022-09-28T06:58:31;16.10;99.90
58566;DHT22;47788;46.172;-1.158;2022-09-28T07:00:57;16.10;99.90
58566;DHT22;47788;46.172;-1.158;2022-09-28T07:03:25;16.20;99.90
58566;DHT22;47788;46.172;-1.158;2022-09-28T07:05:53;16.20;99.90
58566;DHT22;47788;46.172;-1.158;2022-09-28T07:08:21;16.30;99.90
58566;DHT22;47788;46.172;-1.158;2022-09-28T07:10:49;16.20;99.90
58566;DHT22;47788;46.172;-1.158;2022-09-28T07:13:22;16.10;99.90
58566;DHT22;47788;46.172;-1.158;2022-09-28T07:15:52;16.10;99.90
58566;DHT22;47788;46.172;-1.158;2022-09-28T07:18:18;16.10;99.90
58566;DHT22;47788;46.172;-1.158;2022-09-28T07:20:43;16.20;99.90
58566;DHT22;47788;46.172;-1.158;2022-09-28T07:23:09;16.20;99.90
58566;DHT22;47788;46.172;-1.158;2022-09-28T07:25:35;16.30;99.90
58566;DHT22;47788;46.172;-1.158;2022-09-28T07:28:05;16.30;99.90
58566;DHT22;47788;46.172;-1.158;2022-09-28T07:30:33;16.10;99.90
58566;DHT22;47788;46.172;-1.158;2022-09-28T07:32:59;15.90;99.90
58566;DHT22;47788;46.172;-1.158;2022-09-28T07:35:25;15.90;99.90
58566;DHT22;47788;46.172;-1.158;2022-09-28T07:37:59;15.90;99.90
58566;DHT22;47788;46.172;-1.158;2022-09-28T07:40:26;15.90;99.90
58566;DHT22;47788;46.172;-1.158;2022-09-28T07:43:11;15.90;99.90
58566;DHT22;47788;46.172;-1.158;2022-09-28T07:45:38;16.00;99.90
58566;DHT22;47788;46.172;-1.158;2022-09-28T07:48:11;16.00;99.90
58566;DHT22;47788;46.172;-1.158;2022-09-28T08:01:15;16.20;99.90
58566;DHT22;47788;46.172;-1.158;2022-09-28T08:04:07;16.20;99.90
58566;DHT22;47788;46.172;-1.158;2022-09-28T08:06:33;16.20;99.90
58566;DHT22;47788;46.172;-1.158;2022-09-28T08:08:58;16.30;99.90
58566;DHT22;47788;46.172;-1.158;2022-09-28T08:11:26;16.30;99.90
58566;DHT22;47788;46.172;-1.158;2022-09-28T08:13:51;16.50;99.90
58566;DHT22;47788;46.172;-1.158;2022-09-28T08:16:21;16.60;99.90
58566;DHT22;47788;46.172;-1.158;2022-09-28T08:18:49;16.70;99.90
58566;DHT22;47788;46.172;-1.158;2022-09-28T08:21:15;16.80;99.90
58566;DHT22;47788;46.172;-1.158;2022-09-28T08:23:59;16.90;99.90
58566;DHT22;47788;46.172;-1.158;2022-09-28T08:26:25;16.90;99.90
58566;DHT22;47788;46.172;-1.158;2022-09-28T08:28:50;17.00;99.90
58566;DHT22;47788;46.172;-1.158;2022-09-28T08:31:16;17.10;99.90
58566;DHT22;47788;46.172;-1.158;2022-09-28T08:33:41;17.10;99.90
58566;DHT22;47788;46.172;-1.158;2022-09-28T08:36:09;17.30;99.90
58566;DHT22;47788;46.172;-1.158;2022-09-28T08:38:34;17.50;99.90
58566;DHT22;47788;46.172;-1.158;2022-09-28T08:41:14;17.50;99.90
58566;DHT22;47788;46.172;-1.158;2022-09-28T08:46:44;17.00;99.90
58566;DHT22;47788;46.172;-1.158;2022-09-28T08:49:12;17.00;99.90
58566;DHT22;47788;46.172;-1.158;2022-09-28T08:52:05;17.10;99.90
58566;DHT22;47788;46.172;-1.158;2022-09-28T08:54:39;17.30;99.90
58566;DHT22;47788;46.172;-1.158;2022-09-28T08:57:16;17.40;99.90
58566;DHT22;47788;46.172;-1.158;2022-09-28T08:59:48;17.30;99.90
58566;DHT22;47788;46.172;-1.158;2022-09-28T09:02:26;17.30;99.90
58566;DHT22;47788;46.172;-1.158;2022-09-28T09:04:54;17.40;99.90
58566;DHT22;47788;46.172;-1.158;2022-09-28T09:12:57;17.70;99.90
58566;DHT22;47788;46.172;-1.158;2022-09-28T09:21:08;18.00;99.90
58566;DHT22;47788;46.172;-1.158;2022-09-28T09:23:55;18.00;99.90
58566;DHT22;47788;46.172;-1.158;2022-09-28T09:26:38;18.00;99.90
58566;DHT22;47788;46.172;-1.158;2022-09-28T09:48:19;18.10;99.90
58566;DHT22;47788;46.172;-1.158;2022-09-28T09:50:52;17.90;99.90
58566;DHT22;47788;46.172;-1.158;2022-09-28T09:53:27;17.90;99.90
58566;DHT22;47788;46.172;-1.158;2022-09-28T09:56:07;17.90;99.90
58566;DHT22;47788;46.172;-1.158;2022-09-28T09:58:51;18.00;99.90
58566;DHT22;47788;46.172;-1.158;2022-09-28T10:01:29;18.30;99.90
58566;DHT22;47788;46.172;-1.158;2022-09-28T10:03:57;18.50;99.90
58566;DHT22;47788;46.172;-1.158;2022-09-28T10:06:32;18.30;99.90
58566;DHT22;47788;46.172;-1.158;2022-09-28T10:09:13;18.30;99.90
58566;DHT22;47788;46.172;-1.158;2022-09-28T10:11:45;18.40;99.90
58566;DHT22;47788;46.172;-1.158;2022-09-28T10:14:17;18.20;99.90
58566;DHT22;47788;46.172;-1.158;2022-09-28T10:16:46;18.20;99.90
58566;DHT22;47788;46.172;-1.158;2022-09-28T10:19:13;18.30;99.90
58566;DHT22;47788;46.172;-1.158;2022-09-28T10:21:41;18.20;99.90
58566;DHT22;47788;46.172;-1.158;2022-09-28T10:24:19;18.30;99.90
58566;DHT22;47788;46.172;-1.158;2022-09-28T10:26:49;18.40;99.90
58566;DHT22;47788;46.172;-1.158;2022-09-28T10:29:23;18.50;99.90
58566;DHT22;47788;46.172;-1.158;2022-09-28T10:31:50;18.70;99.90
58566;DHT22;47788;46.172;-1.158;2022-09-28T10:34:18;19.00;99.90
58566;DHT22;47788;46.172;-1.158;2022-09-28T10:36:50;18.90;99.90
58566;DHT22;47788;46.172;-1.158;2022-09-28T10:39:30;18.70;99.90
58566;DHT22;47788;46.172;-1.158;2022-09-28T10:41:59;18.50;99.90
58566;DHT22;47788;46.172;-1.158;2022-09-28T10:44:30;18.50;99.90
58566;DHT22;47788;46.172;-1.158;2022-09-28T10:47:05;18.50;99.90
58566;DHT22;47788;46.172;-1.158;2022-09-28T10:49:43;18.30;99.90
58566;DHT22;47788;46.172;-1.158;2022-09-28T10:52:39;18.10;99.90
58566;DHT22;47788;46.172;-1.158;2022-09-28T10:55:25;18.20;99.90
58566;DHT22;47788;46.172;-1.158;2022-09-28T10:57:51;18.20;99.90
58566;DHT22;47788;46.172;-1.158;2022-09-28T11:00:38;18.50;99.90
58566;DHT22;47788;46.172;-1.158;2022-09-28T11:03:08;18.70;99.90
58566;DHT22;47788;46.172;-1.158;2022-09-28T11:05:41;18.80;99.90
58566;DHT22;47788;46.172;-1.158;2022-09-28T11:08:18;18.90;99.90
58566;DHT22;47788;46.172;-1.158;2022-09-28T11:10:46;18.80;99.90
58566;DHT22;47788;46.172;-1.158;2022-09-28T11:13:12;18.70;99.90
58566;DHT22;47788;46.172;-1.158;2022-09-28T11:15:41;18.60;99.90
58566;DHT22;47788;46.172;-1.158;2022-09-28T11:18:24;18.60;99.90
58566;DHT22;47788;46.172;-1.158;2022-09-28T11:20:51;18.70;99.90
58566;DHT22;47788;46.172;-1.158;2022-09-28T11:25:42;18.90;99.90
58566;DHT22;47788;46.172;-1.158;2022-09-28T11:28:26;18.80;99.90
58566;DHT22;47788;46.172;-1.158;2022-09-28T11:30:53;18.70;99.90
58566;DHT22;47788;46.172;-1.158;2022-09-28T11:36:17;18.80;99.90
58566;DHT22;47788;46.172;-1.158;2022-09-28T11:39:06;18.60;99.90
58566;DHT22;47788;46.172;-1.158;2022-09-28T11:49:45;18.60;99.90
58566;DHT22;47788;46.172;-1.158;2022-09-28T11:52:36;18.60;99.90
58566;DHT22;47788;46.172;-1.158;2022-09-28T11:55:18;18.70;99.90
58566;DHT22;47788;46.172;-1.158;2022-09-28T11:57:50;18.80;99.90
58566;DHT22;47788;46.172;-1.158;2022-09-28T12:00:19;18.90;99.90
58566;DHT22;47788;46.172;-1.158;2022-09-28T12:05:30;18.70;99.90
58566;DHT22;47788;46.172;-1.158;2022-09-28T12:08:08;18.60;99.90
58566;DHT22;47788;46.172;-1.158;2022-09-28T12:10:40;18.40;99.90
58566;DHT22;47788;46.172;-1.158;2022-09-28T12:13:12;18.40;99.90
58566;DHT22;47788;46.172;-1.158;2022-09-28T12:18:29;18.30;99.90
58566;DHT22;47788;46.172;-1.158;2022-09-28T12:21:33;18.50;99.90
58566;DHT22;47788;46.172;-1.158;2022-09-28T12:29:31;18.90;99.90
58566;DHT22;47788;46.172;-1.158;2022-09-28T12:32:13;19.20;99.90
58566;DHT22;47788;46.172;-1.158;2022-09-28T12:34:41;19.30;99.90
58566;DHT22;47788;46.172;-1.158;2022-09-28T12:37:31;19.40;99.90
58566;DHT22;47788;46.172;-1.158;2022-09-28T12:46:18;19.30;99.90
58566;DHT22;47788;46.172;-1.158;2022-09-28T13:19:57;19.40;99.90
58566;DHT22;47788;46.172;-1.158;2022-09-28T13:25:17;19.80;99.90
58566;DHT22;47788;46.172;-1.158;2022-09-28T13:27:55;19.70;99.90
58566;DHT22;47788;46.172;-1.158;2022-09-28T13:30:23;19.50;99.90
58566;DHT22;47788;46.172;-1.158;2022-09-28T13:32:50;19.40;99.90
58566;DHT22;47788;46.172;-1.158;2022-09-28T13:35:19;19.20;99.90
58566;DHT22;47788;46.172;-1.158;2022-09-28T13:37:45;19.30;99.90
58566;DHT22;47788;46.172;-1.158;2022-09-28T13:40:12;19.40;99.90
58566;DHT22;47788;46.172;-1.158;2022-09-28T13:45:25;19.10;99.90
58566;DHT22;47788;46.172;-1.158;2022-09-28T13:55:46;17.50;99.90
58566;DHT22;47788;46.172;-1.158;2022-09-28T13:58:43;17.30;99.90
58566;DHT22;47788;46.172;-1.158;2022-09-28T14:01:38;17.30;99.90
58566;DHT22;47788;46.172;-1.158;2022-09-28T14:04:20;17.60;99.90
58566;DHT22;47788;46.172;-1.158;2022-09-28T14:06:53;17.80;99.90
58566;DHT22;47788;46.172;-1.158;2022-09-28T14:14:59;17.70;99.90
58566;DHT22;47788;46.172;-1.158;2022-09-28T14:20:03;17.90;99.90
58566;DHT22;47788;46.172;-1.158;2022-09-28T14:22:48;17.90;99.90
58566;DHT22;47788;46.172;-1.158;2022-09-28T14:25:24;18.00;99.90
58566;DHT22;47788;46.172;-1.158;2022-09-28T14:33:28;18.30;99.90
58566;DHT22;47788;46.172;-1.158;2022-09-28T14:35:59;18.50;99.90
58566;DHT22;47788;46.172;-1.158;2022-09-28T14:38:47;19.00;99.90
58566;DHT22;47788;46.172;-1.158;2022-09-28T14:41:38;19.00;99.90
58566;DHT22;47788;46.172;-1.158;2022-09-28T14:44:08;18.70;99.90
58566;DHT22;47788;46.172;-1.158;2022-09-28T14:52:01;17.90;99.90
58566;DHT22;47788;46.172;-1.158;2022-09-28T14:54:49;18.40;99.90
58566;DHT22;47788;46.172;-1.158;2022-09-28T14:57:21;19.10;99.90
58566;DHT22;47788;46.172;-1.158;2022-09-28T14:59:48;19.60;99.90
58566;DHT22;47788;46.172;-1.158;2022-09-28T15:05:15;20.10;99.90
58566;DHT22;47788;46.172;-1.158;2022-09-28T15:07:44;19.50;99.90
58566;DHT22;47788;46.172;-1.158;2022-09-28T15:10:25;19.30;99.90
58566;DHT22;47788;46.172;-1.158;2022-09-28T15:13:19;19.70;99.90
58566;DHT22;47788;46.172;-1.158;2022-09-28T15:15:47;20.20;99.90
58566;DHT22;47788;46.172;-1.158;2022-09-28T15:20:47;19.90;99.90
58566;DHT22;47788;46.172;-1.158;2022-09-28T15:23:34;20.60;99.90
58566;DHT22;47788;46.172;-1.158;2022-09-28T15:26:01;22.50;99.90
58566;DHT22;47788;46.172;-1.158;2022-09-28T15:28:27;25.80;99.90
58566;DHT22;47788;46.172;-1.158;2022-09-28T15:31:01;26.90;99.90
58566;DHT22;47788;46.172;-1.158;2022-09-28T15:33:28;26.60;99.90
58566;DHT22;47788;46.172;-1.158;2022-09-28T15:36:19;25.00;99.90
58566;DHT22;47788;46.172;-1.158;2022-09-28T15:41:20;20.80;99.90
58566;DHT22;47788;46.172;-1.158;2022-09-28T15:44:05;19.70;99.90
58566;DHT22;47788;46.172;-1.158;2022-09-28T15:46:31;18.90;99.90
58566;DHT22;47788;46.172;-1.158;2022-09-28T15:48:59;18.50;99.90
58566;DHT22;47788;46.172;-1.158;2022-09-28T15:51:28;18.20;99.90
58566;DHT22;47788;46.172;-1.158;2022-09-28T15:54:13;17.90;99.90
58566;DHT22;47788;46.172;-1.158;2022-09-28T15:56:53;17.70;99.90
58566;DHT22;47788;46.172;-1.158;2022-09-28T16:02:14;17.50;99.90
58566;DHT22;47788;46.172;-1.158;2022-09-28T16:04:48;17.40;99.90
58566;DHT22;47788;46.172;-1.158;2022-09-28T16:12:18;18.00;99.90
58566;DHT22;47788;46.172;-1.158;2022-09-28T16:14:48;18.00;99.90
58566;DHT22;47788;46.172;-1.158;2022-09-28T16:17:27;17.80;99.90
58566;DHT22;47788;46.172;-1.158;2022-09-28T16:20:01;17.50;99.90
58566;DHT22;47788;46.172;-1.158;2022-09-28T16:22:28;17.50;99.90
58566;DHT22;47788;46.172;-1.158;2022-09-28T16:24:57;17.30;99.90
58566;DHT22;47788;46.172;-1.158;2022-09-28T16:27:40;17.30;99.90
58566;DHT22;47788;46.172;-1.158;2022-09-28T16:32:58;17.80;99.90
58566;DHT22;47788;46.172;-1.158;2022-09-28T16:40:21;17.20;99.90
58566;DHT22;47788;46.172;-1.158;2022-09-28T16:42:46;17.10;99.90
58566;DHT22;47788;46.172;-1.158;2022-09-28T16:45:18;17.00;99.90
58566;DHT22;47788;46.172;-1.158;2022-09-28T16:47:45;16.80;99.90
58566;DHT22;47788;46.172;-1.158;2022-09-28T16:50:14;16.80;99.90
58566;DHT22;47788;46.172;-1.158;2022-09-28T16:52:40;16.60;99.90
58566;DHT22;47788;46.172;-1.158;2022-09-28T16:55:24;16.70;99.90
58566;DHT22;47788;46.172;-1.158;2022-09-28T16:57:50;16.50;99.90
58566;DHT22;47788;46.172;-1.158;2022-09-28T17:00:22;16.50;99.90
58566;DHT22;47788;46.172;-1.158;2022-09-28T17:02:51;16.40;99.90
58566;DHT22;47788;46.172;-1.158;2022-09-28T17:05:18;16.40;99.90
58566;DHT22;47788;46.172;-1.158;2022-09-28T17:08:17;16.30;99.90
58566;DHT22;47788;46.172;-1.158;2022-09-28T17:10:54;16.40;99.90
58566;DHT22;47788;46.172;-1.158;2022-09-28T17:13:22;16.30;99.90
58566;DHT22;47788;46.172;-1.158;2022-09-28T17:15:53;16.30;99.90
58566;DHT22;47788;46.172;-1.158;2022-09-28T17:18:21;16.30;99.90
58566;DHT22;47788;46.172;-1.158;2022-09-28T17:20:49;16.20;99.90
58566;DHT22;47788;46.172;-1.158;2022-09-28T17:23:16;16.20;99.90
58566;DHT22;47788;46.172;-1.158;2022-09-28T17:25:43;16.20;99.90
58566;DHT22;47788;46.172;-1.158;2022-09-28T17:28:35;16.10;99.90
58566;DHT22;47788;46.172;-1.158;2022-09-28T17:31:02;16.10;99.90
58566;DHT22;47788;46.172;-1.158;2022-09-28T17:33:28;16.00;99.90
58566;DHT22;47788;46.172;-1.158;2022-09-28T17:35:59;15.90;99.90
58566;DHT22;47788;46.172;-1.158;2022-09-28T17:38:25;15.90;99.90
58566;DHT22;47788;46.172;-1.158;2022-09-28T17:40:51;15.80;99.90
58566;DHT22;47788;46.172;-1.158;2022-09-28T17:43:17;15.80;99.90
58566;DHT22;47788;46.172;-1.158;2022-09-28T17:45:45;15.80;99.90
58566;DHT22;47788;46.172;-1.158;2022-09-28T17:48:17;15.70;99.90
58566;DHT22;47788;46.172;-1.158;2022-09-28T17:50:44;15.70;99.90
58566;DHT22;47788;46.172;-1.158;2022-09-28T17:53:12;15.70;99.90
58566;DHT22;47788;46.172;-1.158;2022-09-28T17:55:38;15.60;99.90
58566;DHT22;47788;46.172;-1.158;2022-09-28T17:58:17;15.60;99.90
58566;DHT22;47788;46.172;-1.158;2022-09-28T18:00:45;15.60;99.90
58566;DHT22;47788;46.172;-1.158;2022-09-28T18:03:17;15.60;99.90
58566;DHT22;47788;46.172;-1.158;2022-09-28T18:05:44;15.60;99.90
58566;DHT22;47788;46.172;-1.158;2022-09-28T18:08:13;15.60;99.90
58566;DHT22;47788;46.172;-1.158;2022-09-28T18:10:40;15.50;99.90
58566;DHT22;47788;46.172;-1.158;2022-09-28T18:13:05;15.50;99.90
58566;DHT22;47788;46.172;-1.158;2022-09-28T18:15:31;15.50;99.90
58566;DHT22;47788;46.172;-1.158;2022-09-28T18:17:57;15.50;99.90
58566;DHT22;47788;46.172;-1.158;2022-09-28T18:20:22;15.50;99.90
58566;DHT22;47788;46.172;-1.158;2022-09-28T18:22:48;15.50;99.90
58566;DHT22;47788;46.172;-1.158;2022-09-28T18:25:13;15.40;99.90
58566;DHT22;47788;46.172;-1.158;2022-09-28T18:27:39;15.40;99.90
58566;DHT22;47788;46.172;-1.158;2022-09-28T18:30:05;15.40;99.90
58566;DHT22;47788;46.172;-1.158;2022-09-28T18:32:33;15.40;99.90
58566;DHT22;47788;46.172;-1.158;2022-09-28T18:35:02;15.40;99.90
58566;DHT22;47788;46.172;-1.158;2022-09-28T18:37:28;15.40;99.90
58566;DHT22;47788;46.172;-1.158;2022-09-28T18:39:53;15.40;99.90
58566;DHT22;47788;46.172;-1.158;2022-09-28T18:42:19;15.40;99.90
58566;DHT22;47788;46.172;-1.158;2022-09-28T18:44:45;15.30;99.90
58566;DHT22;47788;46.172;-1.158;2022-09-28T18:47:11;15.30;99.90
58566;DHT22;47788;46.172;-1.158;2022-09-28T18:49:39;15.30;99.90
58566;DHT22;47788;46.172;-1.158;2022-09-28T18:52:05;15.20;99.90